sensor_id;sensor_type;location;lat;lon;timestamp;P1;durP1;ratioP1;P2;durP2;ratioP2
25948;SDS011;13961;51.178;4.448;2023-02-23T00:01:32;88.63;;;36.53;;
25948;SDS011;13961;51.178;4.448;2023-02-23T00:03:58;97.90;;;36.47;;
25948;SDS011;13961;51.178;4.448;2023-02-23T00:06:24;97.22;;;37.83;;
25948;SDS011;13961;51.178;4.448;2023-02-23T00:08:51;90.50;;;37.30;;
25948;SDS011;13961;51.178;4.448;2023-02-23T00:11:19;87.78;;;37.17;;
25948;SDS011;13961;51.178;4.448;2023-02-23T00:13:46;88.40;;;37.67;;
25948;SDS011;13961;51.178;4.448;2023-02-23T00:16:18;88.93;;;36.80;;
25948;SDS011;13961;51.178;4.448;2023-02-23T00:18:54;96.13;;;36.88;;
25948;SDS011;13961;51.178;4.448;2023-02-23T00:21:25;104.38;;;38.38;;
25948;SDS011;13961;51.178;4.448;2023-02-23T00:24:01;102.93;;;37.20;;
25948;SDS011;13961;51.178;4.448;2023-02-23T00:26:33;100.63;;;37.08;;
25948;SDS011;13961;51.178;4.448;2023-02-23T00:29:05;108.03;;;36.80;;
25948;SDS011;13961;51.178;4.448;2023-02-23T00:31:32;102.15;;;37.17;;
25948;SDS011;13961;51.178;4.448;2023-02-23T00:33:59;103.82;;;36.63;;
25948;SDS011;13961;51.178;4.448;2023-02-23T00:36:27;111.57;;;38.20;;
25948;SDS011;13961;51.178;4.448;2023-02-23T00:38:59;108.03;;;37.35;;
25948;SDS011;13961;51.178;4.448;2023-02-23T00:41:26;112.43;;;38.65;;
25948;SDS011;13961;51.178;4.448;2023-02-23T00:43:54;98.88;;;36.17;;
25948;SDS011;13961;51.178;4.448;2023-02-23T00:46:22;105.60;;;36.97;;
25948;SDS011;13961;51.178;4.448;2023-02-23T00:48:51;98.60;;;35.03;;
25948;SDS011;13961;51.178;4.448;2023-02-23T00:51:19;97.05;;;34.90;;
25948;SDS011;13961;51.178;4.448;2023-02-23T00:53:45;96.22;;;34.22;;
25948;SDS011;13961;51.178;4.448;2023-02-23T00:56:12;100.13;;;34.47;;
25948;SDS011;13961;51.178;4.448;2023-02-23T00:58:39;104.95;;;35.78;;
25948;SDS011;13961;51.178;4.448;2023-02-23T01:01:06;91.10;;;33.85;;
25948;SDS011;13961;51.178;4.448;2023-02-23T01:03:37;108.30;;;35.10;;
25948;SDS011;13961;51.178;4.448;2023-02-23T01:06:06;93.68;;;32.83;;
25948;SDS011;13961;51.178;4.448;2023-02-23T01:08:34;96.78;;;34.65;;
25948;SDS011;13961;51.178;4.448;2023-02-23T01:11:06;97.22;;;33.83;;
25948;SDS011;13961;51.178;4.448;2023-02-23T01:13:34;101.28;;;34.85;;
25948;SDS011;13961;51.178;4.448;2023-02-23T01:16:10;90.68;;;31.63;;
25948;SDS011;13961;51.178;4.448;2023-02-23T01:18:38;94.03;;;33.70;;
25948;SDS011;13961;51.178;4.448;2023-02-23T01:21:12;93.88;;;32.13;;
25948;SDS011;13961;51.178;4.448;2023-02-23T01:23:43;96.65;;;32.53;;
25948;SDS011;13961;51.178;4.448;2023-02-23T01:26:16;95.10;;;34.00;;
25948;SDS011;13961;51.178;4.448;2023-02-23T01:28:50;100.68;;;33.88;;
25948;SDS011;13961;51.178;4.448;2023-02-23T01:31:18;86.43;;;33.28;;
25948;SDS011;13961;51.178;4.448;2023-02-23T01:33:44;89.55;;;33.42;;
25948;SDS011;13961;51.178;4.448;2023-02-23T01:36:10;87.53;;;31.30;;
25948;SDS011;13961;51.178;4.448;2023-02-23T01:38:37;85.22;;;32.22;;
25948;SDS011;13961;51.178;4.448;2023-02-23T01:41:03;91.07;;;31.52;;
25948;SDS011;13961;51.178;4.448;2023-02-23T01:43:31;83.95;;;29.42;;
25948;SDS011;13961;51.178;4.448;2023-02-23T01:45:57;80.78;;;27.42;;
25948;SDS011;13961;51.178;4.448;2023-02-23T01:48:31;89.68;;;27.20;;
25948;SDS011;13961;51.178;4.448;2023-02-23T01:51:07;82.35;;;26.27;;
25948;SDS011;13961;51.178;4.448;2023-02-23T01:53:37;88.10;;;26.52;;
25948;SDS011;13961;51.178;4.448;2023-02-23T01:56:09;87.35;;;26.63;;
25948;SDS011;13961;51.178;4.448;2023-02-23T01:58:40;84.93;;;26.83;;
25948;SDS011;13961;51.178;4.448;2023-02-23T02:01:09;94.55;;;27.48;;
25948;SDS011;13961;51.178;4.448;2023-02-23T02:06:06;79.03;;;25.25;;
25948;SDS011;13961;51.178;4.448;2023-02-23T02:08:34;87.45;;;25.50;;
25948;SDS011;13961;51.178;4.448;2023-02-23T02:11:13;77.20;;;24.38;;
25948;SDS011;13961;51.178;4.448;2023-02-23T02:14:01;62.95;;;21.73;;
25948;SDS011;13961;51.178;4.448;2023-02-23T02:16:46;80.00;;;23.88;;
25948;SDS011;13961;51.178;4.448;2023-02-23T02:38:30;68.10;;;21.80;;
25948;SDS011;13961;51.178;4.448;2023-02-23T02:43:52;71.13;;;21.00;;
25948;SDS011;13961;51.178;4.448;2023-02-23T02:46:27;60.13;;;20.50;;
25948;SDS011;13961;51.178;4.448;2023-02-23T02:48:59;57.03;;;20.42;;
25948;SDS011;13961;51.178;4.448;2023-02-23T02:54:31;61.13;;;19.98;;
25948;SDS011;13961;51.178;4.448;2023-02-23T02:57:04;58.30;;;20.20;;
25948;SDS011;13961;51.178;4.448;2023-02-23T02:59:40;63.10;;;22.13;;
25948;SDS011;13961;51.178;4.448;2023-02-23T03:02:29;68.60;;;21.65;;
25948;SDS011;13961;51.178;4.448;2023-02-23T03:05:20;65.75;;;22.27;;
25948;SDS011;13961;51.178;4.448;2023-02-23T03:08:09;84.63;;;24.25;;
25948;SDS011;13961;51.178;4.448;2023-02-23T03:11:06;70.32;;;23.05;;
25948;SDS011;13961;51.178;4.448;2023-02-23T03:17:40;70.05;;;23.40;;
25948;SDS011;13961;51.178;4.448;2023-02-23T03:23:26;81.88;;;24.90;;
25948;SDS011;13961;51.178;4.448;2023-02-23T03:26:21;75.72;;;24.65;;
25948;SDS011;13961;51.178;4.448;2023-02-23T03:29:21;73.68;;;24.52;;
25948;SDS011;13961;51.178;4.448;2023-02-23T03:32:21;82.03;;;26.98;;
25948;SDS011;13961;51.178;4.448;2023-02-23T03:35:08;81.63;;;26.23;;
25948;SDS011;13961;51.178;4.448;2023-02-23T03:40:53;82.90;;;28.25;;
25948;SDS011;13961;51.178;4.448;2023-02-23T03:43:40;85.75;;;27.50;;
25948;SDS011;13961;51.178;4.448;2023-02-23T03:46:31;99.72;;;30.05;;
25948;SDS011;13961;51.178;4.448;2023-02-23T03:49:18;90.47;;;27.73;;
25948;SDS011;13961;51.178;4.448;2023-02-23T03:52:14;85.05;;;29.05;;
25948;SDS011;13961;51.178;4.448;2023-02-23T03:55:03;93.53;;;30.05;;
25948;SDS011;13961;51.178;4.448;2023-02-23T03:57:52;86.53;;;29.45;;
25948;SDS011;13961;51.178;4.448;2023-02-23T04:00:42;98.07;;;29.98;;
25948;SDS011;13961;51.178;4.448;2023-02-23T04:03:29;89.32;;;29.30;;
25948;SDS011;13961;51.178;4.448;2023-02-23T04:06:16;94.93;;;29.92;;
25948;SDS011;13961;51.178;4.448;2023-02-23T04:09:02;89.85;;;29.55;;
25948;SDS011;13961;51.178;4.448;2023-02-23T04:12:12;90.25;;;30.17;;
25948;SDS011;13961;51.178;4.448;2023-02-23T04:15:09;97.47;;;31.08;;
25948;SDS011;13961;51.178;4.448;2023-02-23T04:18:05;90.60;;;30.67;;
25948;SDS011;13961;51.178;4.448;2023-02-23T04:20:35;97.53;;;30.58;;
25948;SDS011;13961;51.178;4.448;2023-02-23T04:23:01;88.03;;;29.65;;
25948;SDS011;13961;51.178;4.448;2023-02-23T04:25:27;92.30;;;30.23;;
25948;SDS011;13961;51.178;4.448;2023-02-23T04:27:54;100.82;;;30.90;;
25948;SDS011;13961;51.178;4.448;2023-02-23T04:30:19;88.38;;;27.75;;
25948;SDS011;13961;51.178;4.448;2023-02-23T04:32:50;91.38;;;28.00;;
25948;SDS011;13961;51.178;4.448;2023-02-23T04:35:16;94.80;;;29.08;;
25948;SDS011;13961;51.178;4.448;2023-02-23T04:37:42;84.60;;;28.40;;
25948;SDS011;13961;51.178;4.448;2023-02-23T04:40:07;78.38;;;26.90;;
25948;SDS011;13961;51.178;4.448;2023-02-23T04:42:34;85.45;;;26.85;;
25948;SDS011;13961;51.178;4.448;2023-02-23T04:45:00;86.07;;;26.63;;
25948;SDS011;13961;51.178;4.448;2023-02-23T04:47:26;87.40;;;28.08;;
25948;SDS011;13961;51.178;4.448;2023-02-23T04:49:51;79.32;;;26.83;;
25948;SDS011;13961;51.178;4.448;2023-02-23T04:52:18;85.85;;;26.13;;
25948;SDS011;13961;51.178;4.448;2023-02-23T04:54:44;82.63;;;28.55;;
25948;SDS011;13961;51.178;4.448;2023-02-23T04:57:10;79.90;;;26.25;;
25948;SDS011;13961;51.178;4.448;2023-02-23T04:59:35;83.95;;;26.77;;
25948;SDS011;13961;51.178;4.448;2023-02-23T05:02:01;84.00;;;28.17;;
25948;SDS011;13961;51.178;4.448;2023-02-23T05:04:27;80.00;;;26.63;;
25948;SDS011;13961;51.178;4.448;2023-02-23T05:06:53;76.70;;;26.50;;
25948;SDS011;13961;51.178;4.448;2023-02-23T05:09:18;71.82;;;25.95;;
25948;SDS011;13961;51.178;4.448;2023-02-23T05:11:45;78.63;;;25.67;;
25948;SDS011;13961;51.178;4.448;2023-02-23T05:14:11;74.25;;;25.88;;
25948;SDS011;13961;51.178;4.448;2023-02-23T05:16:37;77.60;;;25.85;;
25948;SDS011;13961;51.178;4.448;2023-02-23T05:19:03;84.00;;;27.50;;
25948;SDS011;13961;51.178;4.448;2023-02-23T05:21:29;83.80;;;27.55;;
25948;SDS011;13961;51.178;4.448;2023-02-23T05:23:55;91.97;;;29.50;;
25948;SDS011;13961;51.178;4.448;2023-02-23T05:26:21;93.45;;;29.55;;
25948;SDS011;13961;51.178;4.448;2023-02-23T05:28:47;87.57;;;28.67;;
25948;SDS011;13961;51.178;4.448;2023-02-23T05:31:13;85.55;;;28.02;;
25948;SDS011;13961;51.178;4.448;2023-02-23T05:33:38;90.38;;;28.45;;
25948;SDS011;13961;51.178;4.448;2023-02-23T05:36:08;92.80;;;29.55;;
25948;SDS011;13961;51.178;4.448;2023-02-23T05:38:35;87.35;;;27.40;;
25948;SDS011;13961;51.178;4.448;2023-02-23T05:41:05;93.22;;;31.25;;
25948;SDS011;13961;51.178;4.448;2023-02-23T05:43:32;88.18;;;29.17;;
25948;SDS011;13961;51.178;4.448;2023-02-23T05:45:58;91.82;;;29.23;;
25948;SDS011;13961;51.178;4.448;2023-02-23T05:48:25;95.15;;;28.90;;
25948;SDS011;13961;51.178;4.448;2023-02-23T05:50:51;94.75;;;27.90;;
25948;SDS011;13961;51.178;4.448;2023-02-23T05:53:18;101.25;;;30.38;;
25948;SDS011;13961;51.178;4.448;2023-02-23T05:55:43;98.80;;;30.05;;
25948;SDS011;13961;51.178;4.448;2023-02-23T05:58:09;87.88;;;29.02;;
25948;SDS011;13961;51.178;4.448;2023-02-23T06:00:35;93.40;;;28.35;;
25948;SDS011;13961;51.178;4.448;2023-02-23T06:03:00;91.50;;;29.50;;
25948;SDS011;13961;51.178;4.448;2023-02-23T06:05:26;93.03;;;29.67;;
25948;SDS011;13961;51.178;4.448;2023-02-23T06:07:52;91.95;;;28.83;;
25948;SDS011;13961;51.178;4.448;2023-02-23T06:10:18;96.80;;;30.38;;
25948;SDS011;13961;51.178;4.448;2023-02-23T06:12:46;99.25;;;27.48;;
25948;SDS011;13961;51.178;4.448;2023-02-23T06:15:11;81.10;;;27.48;;
25948;SDS011;13961;51.178;4.448;2023-02-23T06:17:37;82.32;;;27.52;;
25948;SDS011;13961;51.178;4.448;2023-02-23T06:20:03;94.32;;;28.55;;
25948;SDS011;13961;51.178;4.448;2023-02-23T06:22:31;82.93;;;28.52;;
25948;SDS011;13961;51.178;4.448;2023-02-23T06:24:56;81.15;;;26.55;;
25948;SDS011;13961;51.178;4.448;2023-02-23T06:27:22;87.80;;;28.45;;
25948;SDS011;13961;51.178;4.448;2023-02-23T06:29:48;85.60;;;28.13;;
25948;SDS011;13961;51.178;4.448;2023-02-23T06:32:13;76.82;;;27.63;;
25948;SDS011;13961;51.178;4.448;2023-02-23T06:34:52;73.65;;;26.92;;
25948;SDS011;13961;51.178;4.448;2023-02-23T06:37:31;83.20;;;27.58;;
25948;SDS011;13961;51.178;4.448;2023-02-23T06:39:57;87.00;;;28.02;;
25948;SDS011;13961;51.178;4.448;2023-02-23T06:42:23;79.43;;;27.25;;
25948;SDS011;13961;51.178;4.448;2023-02-23T06:44:49;76.70;;;26.77;;
25948;SDS011;13961;51.178;4.448;2023-02-23T06:47:15;116.05;;;30.60;;
25948;SDS011;13961;51.178;4.448;2023-02-23T06:49:41;89.88;;;28.05;;
25948;SDS011;13961;51.178;4.448;2023-02-23T06:52:07;81.57;;;28.90;;
25948;SDS011;13961;51.178;4.448;2023-02-23T06:54:33;81.50;;;28.05;;
25948;SDS011;13961;51.178;4.448;2023-02-23T06:56:59;90.05;;;28.13;;
25948;SDS011;13961;51.178;4.448;2023-02-23T06:59:25;89.95;;;28.73;;
25948;SDS011;13961;51.178;4.448;2023-02-23T07:01:52;74.00;;;26.48;;
25948;SDS011;13961;51.178;4.448;2023-02-23T07:04:23;90.28;;;28.92;;
25948;SDS011;13961;51.178;4.448;2023-02-23T07:06:50;71.45;;;26.60;;
25948;SDS011;13961;51.178;4.448;2023-02-23T07:09:16;70.43;;;25.48;;
25948;SDS011;13961;51.178;4.448;2023-02-23T07:11:42;89.28;;;27.35;;
25948;SDS011;13961;51.178;4.448;2023-02-23T07:14:11;72.03;;;27.38;;
25948;SDS011;13961;51.178;4.448;2023-02-23T07:16:37;80.90;;;29.00;;
25948;SDS011;13961;51.178;4.448;2023-02-23T07:19:05;87.88;;;30.23;;
25948;SDS011;13961;51.178;4.448;2023-02-23T07:21:31;85.18;;;28.77;;
25948;SDS011;13961;51.178;4.448;2023-02-23T07:23:58;74.82;;;26.33;;
25948;SDS011;13961;51.178;4.448;2023-02-23T07:26:24;78.22;;;27.60;;
25948;SDS011;13961;51.178;4.448;2023-02-23T07:28:51;68.07;;;25.08;;
25948;SDS011;13961;51.178;4.448;2023-02-23T07:31:16;74.80;;;25.92;;
25948;SDS011;13961;51.178;4.448;2023-02-23T07:33:42;80.82;;;28.02;;
25948;SDS011;13961;51.178;4.448;2023-02-23T07:36:09;80.68;;;28.25;;
25948;SDS011;13961;51.178;4.448;2023-02-23T07:38:35;82.82;;;29.38;;
25948;SDS011;13961;51.178;4.448;2023-02-23T07:41:01;89.32;;;29.65;;
25948;SDS011;13961;51.178;4.448;2023-02-23T07:43:28;81.35;;;29.10;;
25948;SDS011;13961;51.178;4.448;2023-02-23T07:45:54;74.32;;;28.83;;
25948;SDS011;13961;51.178;4.448;2023-02-23T07:48:23;79.30;;;28.95;;
25948;SDS011;13961;51.178;4.448;2023-02-23T07:50:49;87.40;;;30.98;;
25948;SDS011;13961;51.178;4.448;2023-02-23T07:53:15;80.63;;;30.85;;
25948;SDS011;13961;51.178;4.448;2023-02-23T07:55:40;83.93;;;31.25;;
25948;SDS011;13961;51.178;4.448;2023-02-23T07:58:06;108.03;;;33.88;;
25948;SDS011;13961;51.178;4.448;2023-02-23T08:00:33;133.75;;;34.13;;
25948;SDS011;13961;51.178;4.448;2023-02-23T08:03:00;94.32;;;31.70;;
25948;SDS011;13961;51.178;4.448;2023-02-23T08:05:26;89.55;;;30.17;;
25948;SDS011;13961;51.178;4.448;2023-02-23T08:07:54;84.90;;;29.92;;
25948;SDS011;13961;51.178;4.448;2023-02-23T08:10:21;78.10;;;29.65;;
25948;SDS011;13961;51.178;4.448;2023-02-23T08:12:47;80.53;;;29.60;;
25948;SDS011;13961;51.178;4.448;2023-02-23T08:15:13;80.55;;;31.30;;
25948;SDS011;13961;51.178;4.448;2023-02-23T08:17:38;81.50;;;31.77;;
25948;SDS011;13961;51.178;4.448;2023-02-23T08:20:05;82.30;;;29.88;;
25948;SDS011;13961;51.178;4.448;2023-02-23T08:22:31;78.25;;;29.60;;
25948;SDS011;13961;51.178;4.448;2023-02-23T08:24:57;77.03;;;29.25;;
25948;SDS011;13961;51.178;4.448;2023-02-23T08:27:24;81.28;;;29.80;;
25948;SDS011;13961;51.178;4.448;2023-02-23T08:29:50;82.68;;;29.05;;
25948;SDS011;13961;51.178;4.448;2023-02-23T08:32:19;82.95;;;29.33;;
25948;SDS011;13961;51.178;4.448;2023-02-23T08:34:45;79.65;;;28.70;;
25948;SDS011;13961;51.178;4.448;2023-02-23T08:37:10;82.97;;;29.77;;
25948;SDS011;13961;51.178;4.448;2023-02-23T08:39:36;80.80;;;28.83;;
25948;SDS011;13961;51.178;4.448;2023-02-23T08:42:02;71.35;;;27.33;;
25948;SDS011;13961;51.178;4.448;2023-02-23T08:44:29;64.97;;;27.52;;
25948;SDS011;13961;51.178;4.448;2023-02-23T08:46:54;68.82;;;27.13;;
25948;SDS011;13961;51.178;4.448;2023-02-23T08:49:22;66.22;;;26.48;;
25948;SDS011;13961;51.178;4.448;2023-02-23T08:51:49;66.50;;;26.40;;
25948;SDS011;13961;51.178;4.448;2023-02-23T08:54:15;68.65;;;26.70;;
25948;SDS011;13961;51.178;4.448;2023-02-23T08:56:42;70.68;;;26.45;;
25948;SDS011;13961;51.178;4.448;2023-02-23T08:59:09;64.15;;;26.50;;
25948;SDS011;13961;51.178;4.448;2023-02-23T09:01:38;64.07;;;26.80;;
25948;SDS011;13961;51.178;4.448;2023-02-23T09:04:05;66.13;;;26.85;;
25948;SDS011;13961;51.178;4.448;2023-02-23T09:06:30;68.28;;;27.42;;
25948;SDS011;13961;51.178;4.448;2023-02-23T09:08:56;65.55;;;26.73;;
25948;SDS011;13961;51.178;4.448;2023-02-23T09:11:22;71.38;;;27.27;;
25948;SDS011;13961;51.178;4.448;2023-02-23T09:13:48;67.95;;;27.25;;
25948;SDS011;13961;51.178;4.448;2023-02-23T09:16:15;59.53;;;26.13;;
25948;SDS011;13961;51.178;4.448;2023-02-23T09:18:40;64.35;;;25.77;;
25948;SDS011;13961;51.178;4.448;2023-02-23T09:21:07;67.97;;;28.13;;
25948;SDS011;13961;51.178;4.448;2023-02-23T09:23:43;65.53;;;26.58;;
25948;SDS011;13961;51.178;4.448;2023-02-23T09:26:10;63.30;;;25.77;;
25948;SDS011;13961;51.178;4.448;2023-02-23T09:28:37;65.93;;;27.23;;
25948;SDS011;13961;51.178;4.448;2023-02-23T09:31:06;75.80;;;28.42;;
25948;SDS011;13961;51.178;4.448;2023-02-23T09:33:33;57.78;;;25.60;;
25948;SDS011;13961;51.178;4.448;2023-02-23T09:35:59;66.50;;;27.17;;
25948;SDS011;13961;51.178;4.448;2023-02-23T09:38:27;63.47;;;26.25;;
25948;SDS011;13961;51.178;4.448;2023-02-23T09:40:54;66.18;;;27.58;;
25948;SDS011;13961;51.178;4.448;2023-02-23T09:49:00;59.90;;;26.17;;
25948;SDS011;13961;51.178;4.448;2023-02-23T09:51:27;65.55;;;27.85;;
25948;SDS011;13961;51.178;4.448;2023-02-23T09:53:59;67.80;;;27.17;;
25948;SDS011;13961;51.178;4.448;2023-02-23T09:56:31;71.65;;;27.20;;
25948;SDS011;13961;51.178;4.448;2023-02-23T09:59:09;64.18;;;26.33;;
25948;SDS011;13961;51.178;4.448;2023-02-23T10:04:17;72.68;;;26.48;;
25948;SDS011;13961;51.178;4.448;2023-02-23T10:06:53;59.30;;;23.73;;
25948;SDS011;13961;51.178;4.448;2023-02-23T10:23:11;61.03;;;24.35;;
25948;SDS011;13961;51.178;4.448;2023-02-23T10:25:42;60.85;;;24.90;;
25948;SDS011;13961;51.178;4.448;2023-02-23T10:28:15;59.15;;;23.20;;
25948;SDS011;13961;51.178;4.448;2023-02-23T10:30:44;64.47;;;24.42;;
25948;SDS011;13961;51.178;4.448;2023-02-23T10:35:58;64.15;;;26.73;;
25948;SDS011;13961;51.178;4.448;2023-02-23T10:38:35;65.53;;;25.75;;
25948;SDS011;13961;51.178;4.448;2023-02-23T10:41:01;64.55;;;26.13;;
25948;SDS011;13961;51.178;4.448;2023-02-23T10:43:28;63.70;;;26.25;;
25948;SDS011;13961;51.178;4.448;2023-02-23T10:45:54;62.55;;;25.15;;
25948;SDS011;13961;51.178;4.448;2023-02-23T10:48:24;62.97;;;25.05;;
25948;SDS011;13961;51.178;4.448;2023-02-23T10:50:53;56.55;;;24.13;;
25948;SDS011;13961;51.178;4.448;2023-02-23T10:53:32;59.00;;;24.52;;
25948;SDS011;13961;51.178;4.448;2023-02-23T10:56:10;63.45;;;26.17;;
25948;SDS011;13961;51.178;4.448;2023-02-23T10:58:50;60.42;;;23.85;;
25948;SDS011;13961;51.178;4.448;2023-02-23T11:01:38;58.97;;;24.50;;
25948;SDS011;13961;51.178;4.448;2023-02-23T11:07:06;60.42;;;23.85;;
25948;SDS011;13961;51.178;4.448;2023-02-23T11:09:34;61.10;;;25.05;;
25948;SDS011;13961;51.178;4.448;2023-02-23T11:12:01;61.55;;;25.33;;
25948;SDS011;13961;51.178;4.448;2023-02-23T11:14:37;60.22;;;24.83;;
25948;SDS011;13961;51.178;4.448;2023-02-23T11:17:03;55.92;;;24.48;;
25948;SDS011;13961;51.178;4.448;2023-02-23T11:19:32;58.58;;;24.77;;
25948;SDS011;13961;51.178;4.448;2023-02-23T11:22:01;57.10;;;24.02;;
25948;SDS011;13961;51.178;4.448;2023-02-23T11:24:28;52.97;;;23.67;;
25948;SDS011;13961;51.178;4.448;2023-02-23T11:27:00;55.05;;;23.45;;
25948;SDS011;13961;51.178;4.448;2023-02-23T11:29:36;40.50;;;18.67;;
25948;SDS011;13961;51.178;4.448;2023-02-23T11:32:18;53.92;;;23.38;;
25948;SDS011;13961;51.178;4.448;2023-02-23T11:34:47;49.00;;;22.80;;
25948;SDS011;13961;51.178;4.448;2023-02-23T11:37:33;50.42;;;22.80;;
25948;SDS011;13961;51.178;4.448;2023-02-23T11:40:01;53.72;;;24.20;;
25948;SDS011;13961;51.178;4.448;2023-02-23T11:42:42;52.42;;;22.90;;
25948;SDS011;13961;51.178;4.448;2023-02-23T11:45:31;52.00;;;22.85;;
25948;SDS011;13961;51.178;4.448;2023-02-23T11:48:14;46.47;;;21.90;;
25948;SDS011;13961;51.178;4.448;2023-02-23T11:50:46;47.38;;;21.40;;
25948;SDS011;13961;51.178;4.448;2023-02-23T11:53:14;44.53;;;20.98;;
25948;SDS011;13961;51.178;4.448;2023-02-23T11:55:50;47.22;;;22.45;;
25948;SDS011;13961;51.178;4.448;2023-02-23T12:01:10;50.53;;;23.08;;
25948;SDS011;13961;51.178;4.448;2023-02-23T12:03:49;45.25;;;20.60;;
25948;SDS011;13961;51.178;4.448;2023-02-23T12:06:32;51.72;;;22.40;;
25948;SDS011;13961;51.178;4.448;2023-02-23T12:09:07;44.47;;;20.83;;
25948;SDS011;13961;51.178;4.448;2023-02-23T12:11:45;44.78;;;20.73;;
25948;SDS011;13961;51.178;4.448;2023-02-23T12:14:26;46.75;;;20.70;;
25948;SDS011;13961;51.178;4.448;2023-02-23T12:17:05;46.40;;;20.33;;
25948;SDS011;13961;51.178;4.448;2023-02-23T12:20:01;47.78;;;21.08;;
25948;SDS011;13961;51.178;4.448;2023-02-23T12:22:37;46.25;;;21.38;;
25948;SDS011;13961;51.178;4.448;2023-02-23T12:28:02;43.50;;;20.73;;
25948;SDS011;13961;51.178;4.448;2023-02-23T12:33:37;40.28;;;21.25;;
25948;SDS011;13961;51.178;4.448;2023-02-23T12:39:51;44.42;;;20.08;;
25948;SDS011;13961;51.178;4.448;2023-02-23T12:44:52;50.47;;;22.75;;
25948;SDS011;13961;51.178;4.448;2023-02-23T12:49:57;43.00;;;19.83;;
25948;SDS011;13961;51.178;4.448;2023-02-23T12:52:31;43.63;;;18.42;;
25948;SDS011;13961;51.178;4.448;2023-02-23T12:55:00;37.72;;;17.73;;
25948;SDS011;13961;51.178;4.448;2023-02-23T13:05:37;37.65;;;18.25;;
25948;SDS011;13961;51.178;4.448;2023-02-23T13:14:25;37.92;;;16.20;;
25948;SDS011;13961;51.178;4.448;2023-02-23T13:20:25;39.40;;;16.83;;
25948;SDS011;13961;51.178;4.448;2023-02-23T13:28:44;33.50;;;13.85;;
25948;SDS011;13961;51.178;4.448;2023-02-23T13:31:19;33.10;;;14.32;;
25948;SDS011;13961;51.178;4.448;2023-02-23T13:33:52;34.83;;;15.18;;
25948;SDS011;13961;51.178;4.448;2023-02-23T13:36:20;26.63;;;12.40;;
25948;SDS011;13961;51.178;4.448;2023-02-23T13:44:36;30.77;;;12.70;;
25948;SDS011;13961;51.178;4.448;2023-02-23T13:47:35;26.55;;;12.15;;
25948;SDS011;13961;51.178;4.448;2023-02-23T13:52:52;26.25;;;12.05;;
25948;SDS011;13961;51.178;4.448;2023-02-23T13:57:55;25.42;;;11.85;;
25948;SDS011;13961;51.178;4.448;2023-02-23T14:00:29;27.83;;;11.52;;
25948;SDS011;13961;51.178;4.448;2023-02-23T14:02:59;27.40;;;11.82;;
25948;SDS011;13961;51.178;4.448;2023-02-23T14:05:28;23.42;;;11.30;;
25948;SDS011;13961;51.178;4.448;2023-02-23T14:08:03;21.20;;;11.05;;
25948;SDS011;13961;51.178;4.448;2023-02-23T14:25:50;16.05;;;9.57;;
25948;SDS011;13961;51.178;4.448;2023-02-23T14:28:38;16.75;;;10.05;;
25948;SDS011;13961;51.178;4.448;2023-02-23T14:39:00;18.65;;;9.43;;
25948;SDS011;13961;51.178;4.448;2023-02-23T14:44:05;15.52;;;9.57;;
25948;SDS011;13961;51.178;4.448;2023-02-23T14:46:36;15.27;;;9.35;;
25948;SDS011;13961;51.178;4.448;2023-02-23T14:49:08;14.20;;;8.77;;
25948;SDS011;13961;51.178;4.448;2023-02-23T14:51:45;13.32;;;7.75;;
25948;SDS011;13961;51.178;4.448;2023-02-23T14:54:22;12.23;;;7.82;;
25948;SDS011;13961;51.178;4.448;2023-02-23T14:56:55;14.18;;;7.90;;
25948;SDS011;13961;51.178;4.448;2023-02-23T14:59:26;13.80;;;7.97;;
25948;SDS011;13961;51.178;4.448;2023-02-23T15:01:54;14.40;;;8.95;;
25948;SDS011;13961;51.178;4.448;2023-02-23T15:04:24;14.07;;;8.00;;
25948;SDS011;13961;51.178;4.448;2023-02-23T15:06:52;14.27;;;7.80;;
25948;SDS011;13961;51.178;4.448;2023-02-23T15:09:31;18.05;;;8.48;;
25948;SDS011;13961;51.178;4.448;2023-02-23T15:12:15;13.57;;;8.15;;
25948;SDS011;13961;51.178;4.448;2023-02-23T15:14:44;12.13;;;7.70;;
25948;SDS011;13961;51.178;4.448;2023-02-23T15:17:23;13.77;;;8.27;;
25948;SDS011;13961;51.178;4.448;2023-02-23T15:19:55;12.68;;;7.95;;
25948;SDS011;13961;51.178;4.448;2023-02-23T15:22:24;15.07;;;8.27;;
25948;SDS011;13961;51.178;4.448;2023-02-23T15:24:58;14.90;;;8.60;;
25948;SDS011;13961;51.178;4.448;2023-02-23T15:27:30;16.98;;;10.05;;
25948;SDS011;13961;51.178;4.448;2023-02-23T15:32:43;18.05;;;9.88;;
25948;SDS011;13961;51.178;4.448;2023-02-23T15:35:10;19.27;;;9.68;;
25948;SDS011;13961;51.178;4.448;2023-02-23T15:37:43;17.58;;;9.27;;
25948;SDS011;13961;51.178;4.448;2023-02-23T15:40:16;16.35;;;8.25;;
25948;SDS011;13961;51.178;4.448;2023-02-23T15:45:26;14.13;;;8.75;;
25948;SDS011;13961;51.178;4.448;2023-02-23T15:48:02;16.60;;;8.70;;
25948;SDS011;13961;51.178;4.448;2023-02-23T15:50:32;18.33;;;8.75;;
25948;SDS011;13961;51.178;4.448;2023-02-23T15:53:00;16.60;;;8.43;;
25948;SDS011;13961;51.178;4.448;2023-02-23T15:58:01;15.70;;;7.88;;
25948;SDS011;13961;51.178;4.448;2023-02-23T16:01:00;14.35;;;7.25;;
25948;SDS011;13961;51.178;4.448;2023-02-23T16:03:33;15.88;;;7.43;;
25948;SDS011;13961;51.178;4.448;2023-02-23T16:06:06;14.68;;;7.53;;
25948;SDS011;13961;51.178;4.448;2023-02-23T16:08:57;13.55;;;6.93;;
25948;SDS011;13961;51.178;4.448;2023-02-23T16:11:46;11.45;;;6.68;;
25948;SDS011;13961;51.178;4.448;2023-02-23T16:14:15;10.43;;;6.50;;
25948;SDS011;13961;51.178;4.448;2023-02-23T16:16:44;14.35;;;7.40;;
25948;SDS011;13961;51.178;4.448;2023-02-23T16:19:14;15.70;;;7.80;;
25948;SDS011;13961;51.178;4.448;2023-02-23T16:21:41;12.35;;;7.03;;
25948;SDS011;13961;51.178;4.448;2023-02-23T16:24:13;12.02;;;7.10;;
25948;SDS011;13961;51.178;4.448;2023-02-23T16:26:56;12.40;;;7.28;;
25948;SDS011;13961;51.178;4.448;2023-02-23T16:29:36;15.10;;;7.57;;
25948;SDS011;13961;51.178;4.448;2023-02-23T16:32:18;12.55;;;7.28;;
25948;SDS011;13961;51.178;4.448;2023-02-23T16:34:48;16.40;;;7.97;;
25948;SDS011;13961;51.178;4.448;2023-02-23T16:37:20;14.18;;;6.90;;
25948;SDS011;13961;51.178;4.448;2023-02-23T16:39:49;13.27;;;7.30;;
25948;SDS011;13961;51.178;4.448;2023-02-23T16:42:29;13.15;;;7.50;;
25948;SDS011;13961;51.178;4.448;2023-02-23T16:44:57;15.52;;;7.22;;
25948;SDS011;13961;51.178;4.448;2023-02-23T16:49:52;14.48;;;7.75;;
25948;SDS011;13961;51.178;4.448;2023-02-23T16:52:18;14.57;;;7.30;;
25948;SDS011;13961;51.178;4.448;2023-02-23T16:54:49;13.25;;;7.60;;
25948;SDS011;13961;51.178;4.448;2023-02-23T16:57:29;13.63;;;6.90;;
25948;SDS011;13961;51.178;4.448;2023-02-23T17:00:03;13.73;;;7.70;;
25948;SDS011;13961;51.178;4.448;2023-02-23T17:02:42;12.52;;;7.47;;
25948;SDS011;13961;51.178;4.448;2023-02-23T17:05:11;15.68;;;7.82;;
25948;SDS011;13961;51.178;4.448;2023-02-23T17:07:38;14.05;;;7.25;;
25948;SDS011;13961;51.178;4.448;2023-02-23T17:10:04;12.52;;;7.03;;
25948;SDS011;13961;51.178;4.448;2023-02-23T17:12:31;15.43;;;7.22;;
25948;SDS011;13961;51.178;4.448;2023-02-23T17:14:56;14.20;;;7.53;;
25948;SDS011;13961;51.178;4.448;2023-02-23T17:17:22;12.07;;;7.22;;
25948;SDS011;13961;51.178;4.448;2023-02-23T17:19:47;12.48;;;6.70;;
25948;SDS011;13961;51.178;4.448;2023-02-23T17:22:13;12.98;;;6.95;;